createdAt,value
2019-05-10T00:01:20.868Z,97961.89
2019-05-10T00:03:54.697Z,97976.59
2019-05-10T00:06:34.137Z,97963.49
2019-05-10T00:09:10.952Z,97960.55
2019-05-10T00:11:48.439Z,97967.53
2019-05-10T00:14:19.913Z,97960.58
2019-05-10T00:16:54.208Z,97968.80
2019-05-10T00:19:28.287Z,97977.32
2019-05-10T00:22:02.060Z,97966.61
2019-05-10T00:24:35.924Z,97961.08
2019-05-10T00:27:11.179Z,97964.28
2019-05-10T00:29:44.986Z,97965.69
2019-05-10T00:32:20.191Z,97968.50
2019-05-10T00:34:54.200Z,97964.73
2019-05-10T00:37:29.572Z,97962.17
2019-05-10T00:40:06.035Z,97968.55
2019-05-10T00:42:40.563Z,97972.74
2019-05-10T00:45:15.945Z,97973.14
2019-05-10T00:47:50.865Z,97974.53
2019-05-10T00:50:29.058Z,97968.42
2019-05-10T00:53:05.248Z,97964.84
2019-05-10T00:55:40.496Z,97968.84
2019-05-10T00:58:16.157Z,97971.81
2019-05-10T01:00:54.989Z,97967.85
2019-05-10T01:03:33.427Z,97968.45
2019-05-10T01:06:07.258Z,97976.19
2019-05-10T01:08:45.768Z,97979.55
2019-05-10T01:11:21.529Z,97969.42
2019-05-10T01:13:57.074Z,97973.59
2019-05-10T01:16:35.560Z,97975.73
2019-05-10T01:19:11.825Z,97988.03
2019-05-10T01:21:47.632Z,97972.64
2019-05-10T01:24:22.371Z,97981.02
2019-05-10T01:26:57.884Z,97978.99
2019-05-10T01:29:32.934Z,97976.77
2019-05-10T01:32:13.981Z,97981.78
2019-05-10T01:34:47.765Z,97986.11
2019-05-10T01:37:27.145Z,97985.51
2019-05-10T01:40:09.006Z,97993.84
2019-05-10T01:42:44.678Z,97980.86
2019-05-10T01:45:24.889Z,97984.00
2019-05-10T01:48:00.458Z,97998.52
2019-05-10T01:50:37.427Z,97992.50
2019-05-10T01:53:11.418Z,97993.64
2019-05-10T01:55:52.190Z,97977.61
2019-05-10T01:58:22.239Z,97990.91
2019-05-10T02:00:57.113Z,97982.22
2019-05-10T02:03:31.320Z,97986.55
2019-05-10T02:06:05.497Z,97984.43
2019-05-10T02:08:39.554Z,97981.09
2019-05-10T02:11:13.727Z,98004.92
2019-05-10T02:13:49.784Z,97994.17
2019-05-10T02:16:25.945Z,97999.33
2019-05-10T02:19:00.477Z,98003.05
2019-05-10T02:21:35.099Z,98002.03
2019-05-10T02:24:10.059Z,97991.93
2019-05-10T02:26:44.387Z,97985.84
2019-05-10T02:29:19.970Z,97997.08
2019-05-10T02:31:53.767Z,97996.59
2019-05-10T02:34:29.206Z,98002.25
2019-05-10T02:37:03.333Z,97999.77
2019-05-10T02:39:37.617Z,97994.23
2019-05-10T02:42:19.301Z,98004.28
2019-05-10T02:44:52.325Z,97998.81
2019-05-10T02:47:27.848Z,97992.97
2019-05-10T02:50:02.789Z,97992.22
2019-05-10T02:52:37.571Z,97994.64
2019-05-10T02:55:13.575Z,97995.48
2019-05-10T02:57:50.397Z,97970.47
2019-05-10T03:00:26.023Z,97985.80
2019-05-10T03:03:02.321Z,97996.61
2019-05-10T03:05:39.754Z,97989.00
2019-05-10T03:08:15.464Z,97979.42
2019-05-10T03:10:57.709Z,97975.30
2019-05-10T03:13:34.737Z,97970.16
2019-05-10T03:16:09.102Z,97974.09
2019-05-10T03:18:45.103Z,97974.83
2019-05-10T03:21:20.670Z,97970.98
2019-05-10T03:23:57.478Z,97995.50
2019-05-10T03:26:50.170Z,97975.34
2019-05-10T03:29:18.982Z,97975.86
2019-05-10T03:31:52.559Z,97978.48
2019-05-10T03:34:26.855Z,97972.78
2019-05-10T03:37:09.072Z,97973.78
2019-05-10T03:39:43.173Z,97979.13
2019-05-10T03:42:18.820Z,97974.07
2019-05-10T03:44:54.586Z,97979.50
2019-05-10T03:47:28.315Z,97971.96
2019-05-10T03:50:03.682Z,97977.26
2019-05-10T03:52:38.745Z,97977.95
2019-05-10T03:55:29.533Z,97974.97
2019-05-10T03:58:03.879Z,97971.98
2019-05-10T04:00:37.624Z,97964.05
2019-05-10T04:03:12.972Z,97964.07
2019-05-10T04:05:47.536Z,97955.84
2019-05-10T04:08:21.506Z,97957.42
2019-05-10T04:10:55.578Z,97965.19
2019-05-10T04:13:29.842Z,97961.42
2019-05-10T04:16:03.646Z,97947.98
2019-05-10T04:18:39.483Z,97963.80
2019-05-10T04:21:14.138Z,97964.86
2019-05-10T04:23:47.991Z,97969.42
2019-05-10T04:26:25.141Z,97959.13
2019-05-10T04:29:01.576Z,97949.27
2019-05-10T04:31:48.250Z,97952.36
2019-05-10T04:34:22.816Z,97957.15
2019-05-10T04:36:57.410Z,97957.09
2019-05-10T04:39:34.021Z,97958.63
2019-05-10T04:42:09.578Z,97949.23
2019-05-10T04:44:53.141Z,97943.75
2019-05-10T04:47:24.819Z,97953.57
2019-05-10T04:49:58.391Z,97956.55
2019-05-10T04:52:32.181Z,97953.50
2019-05-10T04:55:07.115Z,97955.31
2019-05-10T04:57:50.633Z,97948.08
2019-05-10T05:00:20.517Z,97949.82
2019-05-10T05:02:56.197Z,97948.00
2019-05-10T05:05:30.381Z,97931.97
2019-05-10T05:08:07.632Z,97932.88
2019-05-10T05:10:41.687Z,97937.93
2019-05-10T05:13:16.231Z,97935.86
2019-05-10T05:15:51.444Z,97935.22
2019-05-10T05:18:27.034Z,97934.54
2019-05-10T05:21:04.567Z,97928.47
2019-05-10T05:23:39.126Z,97921.20
2019-05-10T05:26:14.087Z,97930.76
2019-05-10T05:28:48.381Z,97929.75
2019-05-10T05:31:26.823Z,97929.75
2019-05-10T05:34:04.817Z,97925.39
2019-05-10T05:36:36.600Z,97927.23
2019-05-10T05:39:10.931Z,97925.44
2019-05-10T05:41:49.129Z,97918.25
2019-05-10T05:44:20.373Z,97915.47
2019-05-10T05:46:54.286Z,97913.94
2019-05-10T05:49:27.813Z,97907.92
2019-05-10T05:52:03.062Z,97917.97
2019-05-10T05:54:36.920Z,97912.42
2019-05-10T05:57:10.676Z,97912.42
2019-05-10T05:59:44.564Z,97906.67
2019-05-10T06:02:27.927Z,97914.27
2019-05-10T06:05:02.337Z,97903.32
2019-05-10T06:07:37.978Z,97903.03
2019-05-10T06:10:16.924Z,97899.02
2019-05-10T06:12:57.445Z,97909.02
2019-05-10T06:15:32.402Z,97900.88
2019-05-10T06:18:09.569Z,97907.73
2019-05-10T06:23:29.273Z,97893.27
2019-05-10T06:26:00.226Z,97903.46
2019-05-10T06:28:57.369Z,97900.30
2019-05-10T06:31:11.335Z,97897.12
2019-05-10T06:33:46.805Z,97897.95
2019-05-10T06:36:21.973Z,97894.65
2019-05-10T06:38:57.676Z,97897.64
2019-05-10T06:41:33.600Z,97886.67
2019-05-10T06:44:07.527Z,97888.39
2019-05-10T06:46:41.200Z,97886.62
2019-05-10T06:49:18.351Z,97885.38
2019-05-10T06:51:52.404Z,97890.03
2019-05-10T06:54:25.977Z,97899.05
2019-05-10T06:57:00.793Z,97883.97
2019-05-10T06:59:35.110Z,97896.06
2019-05-10T07:02:08.780Z,97882.55
2019-05-10T07:04:42.375Z,97884.59
2019-05-10T07:07:33.140Z,97896.73
2019-05-10T07:10:17.901Z,97876.53
2019-05-10T07:12:29.971Z,97883.42
2019-05-10T07:15:03.414Z,97879.89
2019-05-10T07:17:43.626Z,97886.88
2019-05-10T07:20:12.709Z,97884.08
2019-05-10T07:22:47.085Z,97889.30
2019-05-10T07:25:20.615Z,97886.46
2019-05-10T07:27:53.932Z,97884.78
2019-05-10T07:30:41.180Z,97886.68
2019-05-10T07:33:14.783Z,97891.34
2019-05-10T07:35:48.623Z,97896.31
2019-05-10T07:38:30.839Z,97895.63
2019-05-10T07:40:59.546Z,97891.05
2019-05-10T07:43:34.508Z,97890.78
2019-05-10T07:46:09.875Z,97888.46
2019-05-10T07:48:47.299Z,97889.96
2019-05-10T07:51:22.736Z,97905.02
2019-05-10T07:53:57.107Z,97903.59
2019-05-10T07:56:30.221Z,97900.76
2019-05-10T07:59:07.251Z,97900.63
2019-05-10T08:01:40.630Z,97891.28
2019-05-10T08:04:19.711Z,97900.27
2019-05-10T08:06:52.309Z,97902.97
2019-05-10T08:09:26.011Z,97899.20
2019-05-10T08:12:03.262Z,97900.71
2019-05-10T08:14:34.580Z,97892.45
2019-05-10T08:17:09.598Z,97892.45
2019-05-10T08:19:44.128Z,97898.64
2019-05-10T08:22:22.838Z,97900.83
2019-05-10T08:24:56.408Z,97900.66
2019-05-10T08:27:32.478Z,97917.59
2019-05-10T08:30:22.653Z,97911.18
2019-05-10T08:32:44.926Z,97912.30
2019-05-10T08:35:18.883Z,97916.56
2019-05-10T08:37:54.230Z,97915.03
2019-05-10T08:40:34.093Z,97925.88
2019-05-10T08:43:06.664Z,97917.63
2019-05-10T08:45:38.667Z,97922.28
2019-05-10T08:51:07.486Z,97919.02
2019-05-10T08:53:41.909Z,97928.04
2019-05-10T08:56:21.085Z,97921.19
2019-05-10T08:58:53.358Z,97933.94
2019-05-10T09:01:30.130Z,97926.33
2019-05-10T09:04:06.453Z,97931.77
2019-05-10T09:06:41.892Z,97938.20
2019-05-10T09:09:14.092Z,97933.70
2019-05-10T09:11:48.062Z,97935.05
2019-05-10T09:14:24.187Z,97928.97
2019-05-10T09:17:01.668Z,97940.92
2019-05-10T09:19:40.932Z,97942.45
2019-05-10T09:22:15.980Z,97954.98
2019-05-10T09:24:54.831Z,97952.67
2019-05-10T09:30:54.117Z,97957.55
2019-05-10T09:33:17.173Z,97961.47
2019-05-10T09:35:59.262Z,97964.34
2019-05-10T09:38:39.254Z,97970.39
2019-05-10T09:41:12.837Z,97969.21
2019-05-10T09:44:00.256Z,97966.91
2019-05-10T09:46:43.450Z,97975.98
2019-05-10T09:49:25.968Z,97977.45
2019-05-10T09:52:12.405Z,97978.48
2019-05-10T09:54:44.515Z,97984.62
2019-05-10T09:57:20.205Z,97982.42
2019-05-10T09:59:57.259Z,97988.93
2019-05-10T10:02:37.275Z,97991.48
2019-05-10T10:05:13.912Z,97991.74
2019-05-10T10:07:52.449Z,97995.09
2019-05-10T10:10:32.442Z,97994.66
2019-05-10T10:13:13.475Z,98000.72
2019-05-10T10:15:52.046Z,98000.11
2019-05-10T10:21:30.565Z,98006.58
2019-05-10T10:24:19.990Z,98013.02
2019-05-10T10:27:07.278Z,98012.86
2019-05-10T10:29:47.421Z,98018.77
2019-05-10T10:32:24.653Z,98020.56
2019-05-10T10:34:59.099Z,98030.98
2019-05-10T10:37:38.095Z,98034.55
2019-05-10T10:40:18.346Z,98033.67
2019-05-10T10:42:58.174Z,98044.54
2019-05-10T10:45:40.997Z,98052.66
2019-05-10T10:48:38.045Z,98055.88
2019-05-10T10:51:18.033Z,98060.55
2019-05-10T10:54:09.073Z,98064.77
2019-05-10T10:56:48.928Z,98075.33
2019-05-10T10:59:32.913Z,98076.09
2019-05-10T11:04:51.772Z,98087.91
2019-05-10T11:07:38.521Z,98090.08
2019-05-10T11:10:18.663Z,98097.52
2019-05-10T11:12:47.585Z,98105.94
2019-05-10T11:15:28.987Z,98103.44
2019-05-10T11:18:03.835Z,98102.45
2019-05-10T11:20:53.930Z,98113.93
2019-05-10T11:23:34.158Z,98115.67
2019-05-10T11:26:05.422Z,98118.98
2019-05-10T11:28:44.018Z,98120.29
2019-05-10T11:31:21.359Z,98134.39
2019-05-10T11:34:06.061Z,98135.00
2019-05-10T11:36:46.025Z,98142.98
2019-05-10T11:42:37.390Z,98149.07
2019-05-10T11:45:16.050Z,98145.91
2019-05-10T11:48:02.851Z,98149.35
2019-05-10T11:50:44.492Z,98148.28
2019-05-10T11:53:25.820Z,98154.33
2019-05-10T11:56:02.334Z,98165.18
2019-05-10T11:58:45.936Z,98171.14
2019-05-10T12:01:26.338Z,98167.54
2019-05-10T12:04:28.785Z,98177.94
2019-05-10T12:07:12.857Z,98176.41
2019-05-10T12:09:53.424Z,98171.11
2019-05-10T12:12:44.847Z,98192.36
2019-05-10T12:15:06.539Z,98200.80
2019-05-10T12:17:47.619Z,98204.31
2019-05-10T12:20:30.328Z,98201.73
2019-05-10T12:23:03.204Z,98214.57
2019-05-10T12:26:20.248Z,98215.09
2019-05-10T12:28:28.886Z,98217.94
2019-05-10T12:31:07.489Z,98216.58
2019-05-10T12:33:45.170Z,98220.38
2019-05-10T12:36:25.437Z,98221.83
2019-05-10T12:38:58.847Z,98219.63
2019-05-10T12:41:39.648Z,98230.27
2019-05-10T12:44:12.188Z,98231.08
2019-05-10T12:46:55.319Z,98239.91
2019-05-10T12:49:36.160Z,98236.15
2019-05-10T12:52:14.286Z,98233.03
2019-05-10T12:54:47.204Z,98234.52
2019-05-10T12:57:24.148Z,98240.87
2019-05-10T12:59:59.054Z,98247.50
2019-05-10T13:02:37.894Z,98242.96
2019-05-10T13:05:30.818Z,98252.94
2019-05-10T13:08:23.079Z,98244.17
2019-05-10T13:11:24.686Z,98251.92
2019-05-10T13:14:29.111Z,98256.55
2019-05-10T13:17:28.564Z,98257.38
2019-05-10T13:20:04.906Z,98271.33
2019-05-10T13:22:51.720Z,98277.33
2019-05-10T13:25:37.550Z,98284.34
2019-05-10T13:28:11.940Z,98274.74
2019-05-10T13:30:48.128Z,98285.55
2019-05-10T13:33:29.026Z,98296.91
2019-05-10T13:36:01.987Z,98284.34
2019-05-10T13:38:37.020Z,98296.11
2019-05-10T13:41:17.477Z,98294.31
2019-05-10T13:43:49.742Z,98298.11
2019-05-10T13:46:33.460Z,98312.26
2019-05-10T13:49:09.655Z,98300.08
2019-05-10T13:51:53.273Z,98302.23
2019-05-10T13:54:31.182Z,98296.45
2019-05-10T13:57:17.096Z,98303.05
2019-05-10T13:59:54.998Z,98307.61
2019-05-10T14:02:32.773Z,98316.56
2019-05-10T14:05:06.405Z,98318.16
2019-05-10T14:07:49.681Z,98312.37
2019-05-10T14:10:23.286Z,98318.73
2019-05-10T14:13:01.947Z,98323.29
2019-05-10T14:15:31.231Z,98335.84
2019-05-10T14:18:05.621Z,98323.27
2019-05-10T14:20:40.807Z,98329.61
2019-05-10T14:23:17.792Z,98338.80
2019-05-10T14:25:50.318Z,98344.73
2019-05-10T14:28:25.369Z,98344.77
2019-05-10T14:31:05.041Z,98344.95
2019-05-10T14:33:39.455Z,98357.98
2019-05-10T14:36:14.967Z,98361.58
2019-05-10T14:38:54.047Z,98364.16
2019-05-10T14:41:25.601Z,98363.15
2019-05-10T14:44:00.140Z,98364.08
2019-05-10T14:46:34.562Z,98361.33
2019-05-10T14:49:15.541Z,98365.27
2019-05-10T14:52:27.855Z,98370.87
2019-05-10T14:55:34.440Z,98378.81
2019-05-10T14:58:10.644Z,98378.43
2019-05-10T15:01:03.132Z,98382.53
2019-05-10T15:03:51.239Z,98400.67
2019-05-10T15:06:30.855Z,98406.38
2019-05-10T15:09:05.042Z,98402.14
2019-05-10T15:11:40.101Z,98402.98
2019-05-10T15:14:15.198Z,98399.40
2019-05-10T15:17:01.300Z,98395.34
2019-05-10T15:19:41.878Z,98409.00
2019-05-10T15:22:18.426Z,98413.39
2019-05-10T15:24:59.798Z,98406.63
2019-05-10T15:27:34.767Z,98399.55
2019-05-10T15:30:14.272Z,98411.70
2019-05-10T15:32:49.617Z,98407.16
2019-05-10T15:35:30.244Z,98410.81
2019-05-10T15:38:05.525Z,98410.59
2019-05-10T15:40:44.490Z,98407.11
2019-05-10T15:43:18.956Z,98407.47
2019-05-10T15:45:55.052Z,98407.69
2019-05-10T15:48:41.283Z,98403.66
2019-05-10T15:51:11.306Z,98397.66
2019-05-10T15:54:04.963Z,98395.03
2019-05-10T15:56:42.126Z,98402.50
2019-05-10T15:59:28.396Z,98405.12
2019-05-10T16:02:08.637Z,98415.98
2019-05-10T16:04:44.769Z,98414.01
2019-05-10T16:07:37.785Z,98418.18
2019-05-10T16:10:14.239Z,98420.96
2019-05-10T16:12:50.267Z,98418.22
2019-05-10T16:15:26.735Z,98421.03
2019-05-10T16:18:03.067Z,98417.06
2019-05-10T16:20:38.883Z,98431.83
2019-05-10T16:23:11.924Z,98417.18
2019-05-10T16:25:48.555Z,98418.36
2019-05-10T16:28:22.977Z,98415.66
2019-05-10T16:30:56.906Z,98425.60
2019-05-10T16:33:31.571Z,98428.23
2019-05-10T16:36:08.325Z,98429.69
2019-05-10T16:38:41.273Z,98436.73
2019-05-10T16:41:17.344Z,98442.73
2019-05-10T16:43:51.740Z,98437.11
2019-05-10T16:46:26.060Z,98438.92
2019-05-10T16:49:00.065Z,98438.92
2019-05-10T16:51:49.637Z,98447.48
2019-05-10T16:54:31.151Z,98450.70
2019-05-10T16:57:11.644Z,98438.53
2019-05-10T16:59:47.962Z,98446.31
2019-05-10T17:02:22.405Z,98449.55
2019-05-10T17:05:09.469Z,98451.63
2019-05-10T17:07:41.888Z,98446.75
2019-05-10T17:10:19.593Z,98451.34
2019-05-10T17:13:20.030Z,98450.48
2019-05-10T17:15:54.219Z,98454.80
2019-05-10T17:18:29.775Z,98445.54
2019-05-10T17:21:05.033Z,98452.95
2019-05-10T17:23:41.583Z,98444.25
2019-05-10T17:26:14.704Z,98456.28
2019-05-10T17:28:49.007Z,98451.05
2019-05-10T17:31:23.130Z,98454.35
2019-05-10T17:34:00.930Z,98452.48
2019-05-10T17:36:36.905Z,98462.57
2019-05-10T17:39:12.228Z,98460.09
2019-05-10T17:41:46.263Z,98469.00
2019-05-10T17:44:23.150Z,98469.00
2019-05-10T17:46:58.347Z,98467.02
2019-05-10T17:49:32.344Z,98465.56
2019-05-10T17:52:09.548Z,98463.44
2019-05-10T17:54:46.494Z,98463.34
2019-05-10T17:57:21.072Z,98457.55
2019-05-10T17:59:55.520Z,98460.01
2019-05-10T18:02:31.008Z,98457.84
2019-05-10T18:05:06.075Z,98465.08
2019-05-10T18:07:40.275Z,98465.98
2019-05-10T18:10:14.811Z,98463.33
2019-05-10T18:12:48.758Z,98464.03
2019-05-10T18:15:27.745Z,98477.61
2019-05-10T18:18:02.670Z,98469.54
2019-05-10T18:20:40.969Z,98474.59
2019-05-10T18:23:16.094Z,98472.62
2019-05-10T18:25:46.277Z,98473.58
2019-05-10T18:28:21.570Z,98479.03
2019-05-10T18:30:55.721Z,98473.84
2019-05-10T18:33:29.406Z,98478.81
2019-05-10T18:36:03.526Z,98479.88
2019-05-10T18:38:39.000Z,98473.35
2019-05-10T18:41:14.933Z,98474.96
2019-05-10T18:43:48.976Z,98484.09
2019-05-10T18:46:24.576Z,98485.57
2019-05-10T18:49:04.104Z,98487.68
2019-05-10T18:51:38.573Z,98487.77
2019-05-10T18:54:14.022Z,98493.63
2019-05-10T18:56:49.784Z,98485.39
2019-05-10T18:59:29.026Z,98491.74
2019-05-10T19:02:03.310Z,98490.00
2019-05-10T19:04:36.749Z,98492.99
2019-05-10T19:07:14.972Z,98491.97
2019-05-10T19:09:49.123Z,98498.73
2019-05-10T19:12:23.673Z,98491.08
2019-05-10T19:15:02.199Z,98499.76
2019-05-10T19:17:40.358Z,98499.04
2019-05-10T19:20:16.149Z,98499.66
2019-05-10T19:22:50.243Z,98505.25
2019-05-10T19:25:24.929Z,98493.41
2019-05-10T19:27:59.266Z,98507.07
2019-05-10T19:30:38.163Z,98499.84
2019-05-10T19:33:12.482Z,98506.41
2019-05-10T19:35:46.745Z,98509.61
2019-05-10T19:38:20.941Z,98517.44
2019-05-10T19:41:00.401Z,98508.00
2019-05-10T19:43:37.244Z,98509.83
2019-05-10T19:46:11.837Z,98505.47
2019-05-10T19:48:48.244Z,98510.64
2019-05-10T19:51:57.508Z,98508.52
2019-05-10T19:54:32.798Z,98507.87
2019-05-10T19:57:15.331Z,98509.69
2019-05-10T19:59:46.603Z,98515.17
2019-05-10T20:02:17.958Z,98515.00
2019-05-10T20:04:54.017Z,98515.97
2019-05-10T20:07:44.085Z,98518.80
2019-05-10T20:10:07.867Z,98512.09
2019-05-10T20:12:45.679Z,98510.27
2019-05-10T20:15:20.919Z,98512.68
2019-05-10T20:17:54.531Z,98518.36
2019-05-10T20:20:29.189Z,98516.59
2019-05-10T20:23:04.072Z,98521.56
2019-05-10T20:25:40.486Z,98531.33
2019-05-10T20:28:19.780Z,98529.72
2019-05-10T20:30:54.440Z,98534.81
2019-05-10T20:33:29.803Z,98543.86
2019-05-10T20:36:05.764Z,98547.28
2019-05-10T20:38:39.962Z,98546.86
2019-05-10T20:41:16.420Z,98556.43
2019-05-10T20:43:50.370Z,98556.49
2019-05-10T20:46:24.842Z,98564.26
2019-05-10T20:48:58.927Z,98562.68
2019-05-10T20:51:32.870Z,98568.06
2019-05-10T20:54:07.160Z,98562.70
2019-05-10T20:56:42.140Z,98574.75
2019-05-10T20:59:16.395Z,98579.97
2019-05-10T21:01:54.522Z,98577.70
2019-05-10T21:04:28.373Z,98574.89
2019-05-10T21:07:02.005Z,98579.72
2019-05-10T21:09:36.253Z,98582.80
2019-05-10T21:12:10.121Z,98579.27
2019-05-10T21:14:45.109Z,98575.67
2019-05-10T21:17:18.803Z,98580.70
2019-05-10T21:19:52.350Z,98583.72
2019-05-10T21:22:26.163Z,98585.63
2019-05-10T21:25:21.235Z,98586.25
2019-05-10T21:27:54.957Z,98588.25
2019-05-10T21:30:28.665Z,98596.56
2019-05-10T21:33:02.745Z,98593.28
2019-05-10T21:35:37.357Z,98591.78
2019-05-10T21:38:12.636Z,98596.41
2019-05-10T21:40:46.330Z,98595.88
2019-05-10T21:43:21.249Z,98591.72
2019-05-10T21:45:56.066Z,98593.41
2019-05-10T21:48:31.420Z,98596.94
2019-05-10T21:51:07.428Z,98599.86
2019-05-10T21:53:42.755Z,98600.06
2019-05-10T21:56:18.236Z,98590.74
2019-05-10T21:58:52.150Z,98596.33
2019-05-10T22:01:48.384Z,98598.94
2019-05-10T22:04:22.108Z,98600.08
2019-05-10T22:06:55.924Z,98602.80
2019-05-10T22:09:30.128Z,98609.56
2019-05-10T22:12:05.894Z,98602.44
2019-05-10T22:14:42.779Z,98610.29
2019-05-10T22:17:16.522Z,98610.29
2019-05-10T22:19:50.668Z,98619.94
2019-05-10T22:22:26.530Z,98622.48
2019-05-10T22:25:00.561Z,98617.47
2019-05-10T22:27:34.401Z,98614.22
2019-05-10T22:30:12.508Z,98624.22
2019-05-10T22:32:47.713Z,98626.81
2019-05-10T22:35:21.847Z,98629.48
2019-05-10T22:37:56.322Z,98624.22
2019-05-10T22:40:30.560Z,98627.62
2019-05-10T22:43:04.937Z,98627.34
2019-05-10T22:45:38.897Z,98624.97
2019-05-10T22:48:13.951Z,98629.64
2019-05-10T22:50:48.540Z,98633.80
2019-05-10T22:53:23.110Z,98631.84
2019-05-10T22:55:57.586Z,98636.42
2019-05-10T22:58:32.209Z,98639.75
2019-05-10T23:01:08.281Z,98638.23
2019-05-10T23:03:43.123Z,98642.61
2019-05-10T23:06:18.048Z,98642.20
2019-05-10T23:08:52.141Z,98646.48
2019-05-10T23:11:26.634Z,98649.48
2019-05-10T23:14:02.303Z,98646.89
2019-05-10T23:16:35.754Z,98650.81
2019-05-10T23:19:10.057Z,98654.55
2019-05-10T23:21:44.704Z,98651.02
2019-05-10T23:24:18.923Z,98651.84
2019-05-10T23:26:56.017Z,98647.61
2019-05-10T23:29:31.789Z,98645.25
2019-05-10T23:32:08.154Z,98642.86
2019-05-10T23:34:42.063Z,98643.74
2019-05-10T23:37:16.231Z,98641.04
2019-05-10T23:39:53.344Z,98639.53
2019-05-10T23:42:33.669Z,98635.95
2019-05-10T23:45:08.431Z,98639.32
2019-05-10T23:47:45.476Z,98646.00
2019-05-10T23:50:20.665Z,98643.45
2019-05-10T23:52:54.938Z,98646.84
2019-05-10T23:55:31.805Z,98646.75
2019-05-10T23:58:07.379Z,98642.19
